Terminal Aerodrome Forecast
Issued by NWS Sterling, VA

Home | Current Version | Previous Version | Text Only | Print | Product List | Glossary On
Versions: 1 2 3 4 5 6 7 8 9 10 11 12 13 14 15 16 17 18 19 20 21 22 23 24 25 26
160
FTUS41 KLWX 221736 AAB
TAFCHO
TAF AMD
KCHO 221736Z 2218/2318 05005KT 5SM -RA OVC008
     FM230500 05010KT 5SM -RA OVC008
     FM230600 05011KT 5SM RA OVC008
     FM230900 05012G23KT 5SM RA OVC008
     FM231000 05012G23KT 5SM RA OVC008
     FM231500 07007KT P6SM OVC050=

USA.gov is the U.S. government's official web portal to all federal, state and local government web resources and services.